Time;durP1;ratioP1;P1;durP2;ratioP2;P2;SDS_P1;SDS_P2;PMS_P1;PMS_P2;Temp;Humidity;BMP_temperature;BMP_pressure;BME280_temperature;BME280_humidity;BME280_pressure;Samples;Min_cycle;Max_cycle;Signal;HPM_P1;HPM_P2
2022/02/19 00:00:00;;;;;;;0.50;0.50;;;;;;;;;;1888705;76;26350;-45
2022/02/19 00:02:27;;;;;;;0.60;0.57;;;;;;;;;;1885703;76;26783;-47
2022/02/19 00:04:55;;;;;;;0.70;0.70;;;;;;;;;;1887404;76;26288;-47
2022/02/19 00:07:22;;;;;;;0.40;0.40;;;;;;;;;;1887548;76;26263;-46
2022/02/19 00:09:49;;;;;;;0.60;0.35;;;;;;;;;;1886803;76;26277;-50
2022/02/19 00:12:17;;;;;;;0.40;0.40;;;;;;;;;;1886356;76;26737;-49
2022/02/19 00:14:44;;;;;;;0.40;0.40;;;;;;;;;;1887739;76;26277;-47
2022/02/19 00:17:12;;;;;;;0.60;0.60;;;;;;;;;;1885725;76;26806;-44
2022/02/19 00:19:39;;;;;;;0.50;0.50;;;;;;;;;;1887706;76;26304;-44
2022/02/19 00:22:07;;;;;;;1.95;0.35;;;;;;;;;;1888951;76;26249;-45
2022/02/19 00:24:34;;;;;;;0.40;0.40;;;;;;;;;;1888046;76;26277;-47
2022/02/19 00:27:01;;;;;;;0.47;0.47;;;;;;;;;;1889013;76;26246;-49
2022/02/19 00:29:29;;;;;;;0.40;0.40;;;;;;;;;;1888530;75;26374;-45
2022/02/19 00:31:56;;;;;;;0.40;0.40;;;;;;;;;;1889123;76;26273;-46
2022/02/19 00:34:24;;;;;;;0.40;0.40;;;;;;;;;;1888798;76;26303;-44
2022/02/19 00:36:51;;;;;;;1.55;0.47;;;;;;;;;;1888461;76;27450;-46
2022/02/19 00:39:18;;;;;;;0.30;0.30;;;;;;;;;;1875817;76;26700;-47
2022/02/19 00:41:45;;;;;;;0.30;0.30;;;;;;;;;;1887944;75;26272;-46
2022/02/19 00:44:13;;;;;;;0.40;0.40;;;;;;;;;;1884748;75;26363;-44
2022/02/19 00:46:40;;;;;;;0.40;0.40;;;;;;;;;;1882626;76;26791;-44
2022/02/19 00:49:07;;;;;;;0.40;0.40;;;;;;;;;;1887200;76;26696;-46
2022/02/19 00:51:35;;;;;;;0.40;0.40;;;;;;;;;;1886049;75;26267;-49
2022/02/19 00:54:02;;;;;;;0.37;0.37;;;;;;;;;;1882394;75;26284;-46
2022/02/19 00:56:30;;;;;;;0.60;0.50;;;;;;;;;;1880923;76;26237;-44
2022/02/19 00:58:57;;;;;;;0.40;0.40;;;;;;;;;;1881262;76;26286;-47
2022/02/19 01:01:24;;;;;;;0.50;0.50;;;;;;;;;;1884440;76;26264;-44
2022/02/19 01:03:56;;;;;;;0.40;0.40;;;;;;;;;;1886615;75;26281;-45
2022/02/19 01:06:21;;;;;;;0.40;0.40;;;;;;;;;;1887193;75;26277;-46
2022/02/19 01:08:52;;;;;;;0.40;0.40;;;;;;;;;;1881516;75;26301;-46
2022/02/19 01:11:20;;;;;;;1.27;0.40;;;;;;;;;;1876557;76;26782;-45
2022/02/19 01:13:48;;;;;;;0.42;0.42;;;;;;;;;;1876431;76;26300;-48
2022/02/19 01:16:16;;;;;;;1.10;0.40;;;;;;;;;;1886909;76;26268;-47
2022/02/19 01:18:43;;;;;;;0.50;0.50;;;;;;;;;;1889667;76;26200;-45
2022/02/19 01:21:10;;;;;;;0.50;0.50;;;;;;;;;;1885074;75;26248;-48
2022/02/19 01:23:37;;;;;;;0.40;0.40;;;;;;;;;;1874061;75;26729;-49
2022/02/19 01:26:05;;;;;;;0.50;0.50;;;;;;;;;;1885577;76;26692;-44
2022/02/19 01:28:34;;;;;;;0.45;0.42;;;;;;;;;;1882662;76;26765;-44
2022/02/19 01:31:01;;;;;;;0.35;0.35;;;;;;;;;;1887580;76;26415;-45
2022/02/19 01:33:28;;;;;;;0.30;0.30;;;;;;;;;;1888290;76;26269;-48
2022/02/19 01:35:55;;;;;;;0.33;0.33;;;;;;;;;;1886543;75;26269;-45
2022/02/19 01:38:24;;;;;;;0.45;0.45;;;;;;;;;;1894358;75;26279;-45
2022/02/19 01:40:52;;;;;;;0.30;0.30;;;;;;;;;;1887570;76;26830;-49
2022/02/19 01:43:19;;;;;;;0.40;0.40;;;;;;;;;;1888768;76;26260;-46
2022/02/19 01:45:47;;;;;;;0.40;0.40;;;;;;;;;;1881372;76;26331;-45
2022/02/19 01:48:15;;;;;;;0.40;0.40;;;;;;;;;;1885297;76;26281;-46
2022/02/19 01:50:42;;;;;;;0.40;0.40;;;;;;;;;;1887393;76;26255;-48
2022/02/19 01:53:10;;;;;;;0.28;0.28;;;;;;;;;;1889925;76;26264;-48
2022/02/19 01:55:37;;;;;;;0.47;0.47;;;;;;;;;;1886466;75;26315;-44
2022/02/19 01:58:06;;;;;;;0.40;0.40;;;;;;;;;;1880945;76;26858;-46
2022/02/19 02:00:33;;;;;;;0.50;0.50;;;;;;;;;;1886430;76;26444;-48
2022/02/19 02:03:01;;;;;;;0.50;0.50;;;;;;;;;;1882704;76;26289;-46
2022/02/19 02:05:29;;;;;;;0.30;0.30;;;;;;;;;;1869963;75;26292;-45
2022/02/19 02:07:56;;;;;;;0.40;0.40;;;;;;;;;;1883133;76;26322;-44
2022/02/19 02:10:24;;;;;;;0.90;0.50;;;;;;;;;;1881015;75;26920;-44
2022/02/19 02:12:51;;;;;;;0.50;0.40;;;;;;;;;;1888075;74;26326;-49
2022/02/19 02:15:23;;;;;;;0.50;0.50;;;;;;;;;;1884124;74;25703;-47
2022/02/19 02:17:51;;;;;;;0.30;0.30;;;;;;;;;;1875576;76;26363;-46
2022/02/19 02:20:18;;;;;;;0.50;0.50;;;;;;;;;;1886056;76;27452;-45
2022/02/19 02:22:46;;;;;;;0.40;0.40;;;;;;;;;;1880563;76;26244;-45
2022/02/19 02:25:15;;;;;;;0.57;0.40;;;;;;;;;;1888209;76;26818;-44
2022/02/19 02:27:42;;;;;;;3.02;0.30;;;;;;;;;;1889899;76;26265;-48
2022/02/19 02:30:10;;;;;;;0.33;0.33;;;;;;;;;;1889860;76;26358;-44
2022/02/19 02:32:37;;;;;;;0.37;0.37;;;;;;;;;;1889951;76;26296;-44
2022/02/19 02:35:05;;;;;;;0.45;0.45;;;;;;;;;;1884712;76;26272;-44
2022/02/19 02:37:32;;;;;;;0.20;0.20;;;;;;;;;;1888870;75;26303;-43
2022/02/19 02:40:00;;;;;;;0.40;0.40;;;;;;;;;;1886593;76;26634;-44
2022/02/19 02:42:27;;;;;;;0.50;0.50;;;;;;;;;;1889702;75;26835;-44
2022/02/19 02:44:54;;;;;;;0.20;0.20;;;;;;;;;;1889279;76;26272;-47
2022/02/19 02:47:22;;;;;;;0.40;0.40;;;;;;;;;;1883327;76;26248;-44
2022/02/19 02:49:49;;;;;;;0.35;0.35;;;;;;;;;;1874146;76;26365;-43
2022/02/19 02:52:16;;;;;;;0.55;0.35;;;;;;;;;;1874434;76;26285;-49
2022/02/19 02:54:43;;;;;;;0.30;0.30;;;;;;;;;;1868304;75;26371;-50
2022/02/19 02:57:11;;;;;;;0.20;0.20;;;;;;;;;;1877238;76;26313;-47
2022/02/19 02:59:38;;;;;;;0.20;0.20;;;;;;;;;;1880282;76;26237;-47
2022/02/19 03:02:06;;;;;;;0.30;0.30;;;;;;;;;;1880365;76;26284;-46
2022/02/19 03:04:34;;;;;;;1.10;0.20;;;;;;;;;;1881144;75;26225;-47
2022/02/19 03:07:01;;;;;;;0.20;0.20;;;;;;;;;;1886180;75;26257;-48
2022/02/19 03:09:28;;;;;;;0.23;0.23;;;;;;;;;;1860144;75;26190;-44
2022/02/19 03:11:56;;;;;;;0.20;0.20;;;;;;;;;;1875652;75;26353;-45
2022/02/19 03:14:23;;;;;;;0.17;0.17;;;;;;;;;;1878985;76;26330;-45
2022/02/19 03:16:50;;;;;;;0.35;0.33;;;;;;;;;;1880374;76;26267;-43
2022/02/19 03:19:18;;;;;;;0.20;0.20;;;;;;;;;;1873235;75;26296;-45
2022/02/19 03:21:45;;;;;;;0.65;0.30;;;;;;;;;;1879114;75;26257;-45
2022/02/19 03:24:12;;;;;;;0.40;0.40;;;;;;;;;;1871428;76;26851;-44
2022/02/19 03:26:40;;;;;;;0.30;0.30;;;;;;;;;;1879190;76;26282;-44
2022/02/19 03:29:07;;;;;;;0.20;0.20;;;;;;;;;;1880596;76;26312;-49
2022/02/19 03:31:34;;;;;;;0.10;0.10;;;;;;;;;;1879229;76;26234;-44
2022/02/19 03:34:02;;;;;;;0.20;0.20;;;;;;;;;;1880255;76;26745;-47
2022/02/19 03:36:29;;;;;;;0.20;0.20;;;;;;;;;;1879173;75;26708;-44
2022/02/19 03:38:56;;;;;;;0.20;0.20;;;;;;;;;;1877654;75;26278;-46
2022/02/19 03:41:24;;;;;;;0.20;0.20;;;;;;;;;;1877445;76;26358;-44
2022/02/19 03:43:51;;;;;;;0.20;0.20;;;;;;;;;;1876763;75;26339;-48
2022/02/19 03:46:18;;;;;;;0.37;0.37;;;;;;;;;;1890375;74;26305;-46
2022/02/19 03:48:46;;;;;;;0.20;0.20;;;;;;;;;;1884181;75;26273;-45
2022/02/19 03:51:13;;;;;;;0.20;0.20;;;;;;;;;;1888274;75;26351;-48
2022/02/19 03:53:41;;;;;;;0.37;0.37;;;;;;;;;;1877849;75;26339;-49
2022/02/19 03:56:08;;;;;;;0.20;0.20;;;;;;;;;;1878680;75;26409;-45
2022/02/19 03:58:35;;;;;;;0.70;0.20;;;;;;;;;;1890672;75;26249;-44
2022/02/19 04:01:03;;;;;;;0.20;0.20;;;;;;;;;;1884826;76;26190;-44
2022/02/19 04:03:31;;;;;;;0.20;0.20;;;;;;;;;;1889636;76;25569;-46
2022/02/19 04:05:58;;;;;;;0.20;0.20;;;;;;;;;;1889300;75;26312;-47
2022/02/19 04:08:26;;;;;;;0.40;0.20;;;;;;;;;;1885351;76;26273;-47
2022/02/19 04:10:53;;;;;;;0.30;0.30;;;;;;;;;;1870483;76;26264;-46
2022/02/19 04:13:21;;;;;;;0.17;0.17;;;;;;;;;;1888574;76;26284;-46
2022/02/19 04:15:48;;;;;;;0.10;0.10;;;;;;;;;;1877684;76;26256;-46
2022/02/19 04:18:16;;;;;;;1.75;0.35;;;;;;;;;;1876711;76;26197;-44
2022/02/19 04:20:43;;;;;;;0.20;0.20;;;;;;;;;;1888326;76;26341;-46
2022/02/19 04:23:10;;;;;;;0.20;0.20;;;;;;;;;;1886451;76;26309;-48
2022/02/19 04:25:38;;;;;;;0.20;0.20;;;;;;;;;;1877266;75;26288;-44
2022/02/19 04:28:09;;;;;;;0.10;0.10;;;;;;;;;;1889788;76;26282;-47
2022/02/19 04:30:37;;;;;;;0.20;0.20;;;;;;;;;;1889672;76;26265;-44
2022/02/19 04:33:05;;;;;;;0.13;0.10;;;;;;;;;;1889672;76;26725;-45
2022/02/19 04:35:34;;;;;;;0.30;0.30;;;;;;;;;;1886520;76;26268;-47
2022/02/19 04:38:01;;;;;;;0.10;0.10;;;;;;;;;;1892502;75;26281;-45
2022/02/19 04:40:29;;;;;;;0.20;0.20;;;;;;;;;;1872736;75;26254;-44
2022/02/19 04:42:57;;;;;;;0.57;0.10;;;;;;;;;;1888285;74;26262;-44
2022/02/19 04:45:25;;;;;;;0.30;0.30;;;;;;;;;;1890421;74;26244;-43
2022/02/19 04:47:53;;;;;;;0.72;0.20;;;;;;;;;;1884526;76;26387;-45
2022/02/19 04:50:20;;;;;;;0.20;0.20;;;;;;;;;;1880570;76;26583;-46
2022/02/19 04:52:48;;;;;;;0.10;0.10;;;;;;;;;;1879925;75;26245;-49
2022/02/19 04:55:15;;;;;;;0.30;0.30;;;;;;;;;;1877198;76;26294;-44
2022/02/19 04:57:43;;;;;;;0.20;0.20;;;;;;;;;;1867809;76;26316;-47
2022/02/19 05:00:12;;;;;;;0.20;0.20;;;;;;;;;;1876615;75;27040;-44
2022/02/19 05:02:40;;;;;;;0.10;0.10;;;;;;;;;;1875471;75;26860;-44
2022/02/19 05:05:07;;;;;;;0.10;0.10;;;;;;;;;;1864043;75;26741;-46
2022/02/19 05:07:35;;;;;;;0.15;0.15;;;;;;;;;;1877934;76;26740;-49
2022/02/19 05:10:03;;;;;;;0.17;0.17;;;;;;;;;;1880055;76;26246;-46
2022/02/19 05:12:31;;;;;;;0.10;0.10;;;;;;;;;;1879734;76;26202;-43
2022/02/19 05:14:59;;;;;;;0.10;0.10;;;;;;;;;;1876867;76;26218;-45
2022/02/19 05:17:26;;;;;;;0.20;0.20;;;;;;;;;;1862615;76;26291;-44
2022/02/19 05:19:54;;;;;;;0.20;0.20;;;;;;;;;;1874560;75;26331;-45
2022/02/19 05:22:21;;;;;;;1.02;0.10;;;;;;;;;;1874555;76;26191;-46
2022/02/19 05:24:48;;;;;;;0.10;0.10;;;;;;;;;;1862082;76;26771;-43
2022/02/19 05:27:15;;;;;;;0.00;0.00;;;;;;;;;;1873430;76;27012;-45
2022/02/19 05:29:43;;;;;;;0.03;0.03;;;;;;;;;;1864847;76;26674;-47
2022/02/19 05:32:10;;;;;;;0.10;0.10;;;;;;;;;;1876769;76;26700;-45
2022/02/19 05:34:37;;;;;;;0.10;0.10;;;;;;;;;;1880524;76;26315;-47
2022/02/19 05:37:04;;;;;;;0.10;0.10;;;;;;;;;;1878859;76;26355;-43
2022/02/19 05:39:32;;;;;;;0.03;0.03;;;;;;;;;;1880160;76;26264;-44
2022/02/19 05:41:59;;;;;;;0.15;0.15;;;;;;;;;;1876773;75;26274;-44
2022/02/19 05:44:26;;;;;;;0.00;0.00;;;;;;;;;;1880125;76;26697;-46
2022/02/19 05:46:54;;;;;;;0.10;0.10;;;;;;;;;;1859362;76;26816;-44
2022/02/19 05:49:21;;;;;;;0.08;0.08;;;;;;;;;;1888658;76;26721;-44
2022/02/19 05:51:48;;;;;;;0.15;0.15;;;;;;;;;;1889778;76;26241;-44
2022/02/19 05:54:15;;;;;;;0.10;0.10;;;;;;;;;;1889391;76;26260;-45
2022/02/19 05:56:43;;;;;;;1.30;0.10;;;;;;;;;;1881341;75;26708;-43
2022/02/19 05:59:10;;;;;;;0.10;0.10;;;;;;;;;;1888391;76;26330;-45
2022/02/19 06:01:37;;;;;;;0.00;0.00;;;;;;;;;;1885788;76;26361;-47
2022/02/19 06:04:05;;;;;;;0.10;0.10;;;;;;;;;;1889502;74;26259;-46
2022/02/19 06:06:32;;;;;;;0.37;0.10;;;;;;;;;;1884633;76;26874;-43
2022/02/19 06:08:59;;;;;;;0.03;0.03;;;;;;;;;;1889880;76;26252;-43
2022/02/19 06:11:27;;;;;;;0.10;0.10;;;;;;;;;;1889781;76;26264;-48
2022/02/19 06:13:54;;;;;;;0.35;0.17;;;;;;;;;;1889278;76;26204;-44
2022/02/19 06:16:21;;;;;;;0.10;0.10;;;;;;;;;;1888228;76;26244;-45
2022/02/19 06:18:48;;;;;;;0.10;0.10;;;;;;;;;;1887334;75;26335;-46
2022/02/19 06:21:16;;;;;;;0.00;0.00;;;;;;;;;;1885975;75;26244;-48
2022/02/19 06:23:43;;;;;;;0.10;0.10;;;;;;;;;;1888059;75;26921;-46
2022/02/19 06:26:10;;;;;;;0.10;0.10;;;;;;;;;;1889146;76;26744;-43
2022/02/19 06:28:37;;;;;;;1.02;0.30;;;;;;;;;;1888095;76;26269;-45
2022/02/19 06:31:05;;;;;;;0.10;0.10;;;;;;;;;;1889117;76;26256;-45
2022/02/19 06:33:32;;;;;;;0.20;0.20;;;;;;;;;;1888242;76;26280;-49
2022/02/19 06:35:59;;;;;;;0.10;0.10;;;;;;;;;;1887008;76;26314;-48
2022/02/19 06:38:27;;;;;;;0.25;0.10;;;;;;;;;;1888182;76;26311;-48
2022/02/19 06:40:54;;;;;;;0.10;0.10;;;;;;;;;;1889240;76;26241;-45
2022/02/19 06:43:21;;;;;;;0.10;0.10;;;;;;;;;;1886345;74;26703;-46
2022/02/19 06:45:49;;;;;;;0.10;0.10;;;;;;;;;;1887699;76;27524;-49
2022/02/19 06:48:16;;;;;;;0.20;0.20;;;;;;;;;;1886021;76;26661;-46
2022/02/19 06:50:43;;;;;;;1.10;0.10;;;;;;;;;;1878678;76;26292;-49
2022/02/19 06:53:10;;;;;;;0.35;0.35;;;;;;;;;;1879245;76;26273;-47
2022/02/19 06:55:38;;;;;;;1.62;0.33;;;;;;;;;;1875131;75;26622;-48
2022/02/19 06:58:05;;;;;;;0.20;0.20;;;;;;;;;;1878883;76;26269;-46
2022/02/19 07:00:32;;;;;;;4.92;0.35;;;;;;;;;;1877301;75;26284;-46
2022/02/19 07:03:00;;;;;;;5.62;0.28;;;;;;;;;;1879473;76;26265;-48
2022/02/19 07:05:27;;;;;;;0.90;0.30;;;;;;;;;;1881265;75;26335;-47
2022/02/19 07:07:54;;;;;;;1.60;0.30;;;;;;;;;;1875306;75;26283;-46
2022/02/19 07:10:21;;;;;;;1.52;0.30;;;;;;;;;;1881301;75;26334;-49
2022/02/19 07:12:49;;;;;;;1.62;0.50;;;;;;;;;;1876124;75;26281;-45
2022/02/19 07:15:20;;;;;;;0.65;0.45;;;;;;;;;;1879730;76;26366;-52
2022/02/19 07:17:49;;;;;;;0.70;0.70;;;;;;;;;;1876721;76;26214;-44
2022/02/19 07:20:16;;;;;;;1.12;0.88;;;;;;;;;;1876751;76;26364;-48
2022/02/19 07:22:44;;;;;;;1.27;0.80;;;;;;;;;;1875527;76;26284;-47
2022/02/19 07:25:11;;;;;;;1.47;0.78;;;;;;;;;;1879244;76;26331;-48
2022/02/19 07:27:39;;;;;;;12.30;0.80;;;;;;;;;;1880068;76;26257;-47
2022/02/19 07:30:07;;;;;;;3.08;0.70;;;;;;;;;;1876624;76;26271;-48
2022/02/19 07:32:35;;;;;;;7.30;0.65;;;;;;;;;;1880025;76;26273;-45
2022/02/19 07:35:09;;;;;;;5.37;0.90;;;;;;;;;;1878637;75;26370;-49
2022/02/19 07:37:37;;;;;;;3.10;0.80;;;;;;;;;;1887363;75;25676;-49
2022/02/19 07:40:06;;;;;;;4.83;1.12;;;;;;;;;;1880699;76;26345;-45
2022/02/19 07:42:34;;;;;;;2.15;0.57;;;;;;;;;;1874217;76;26817;-48
2022/02/19 07:45:01;;;;;;;0.90;0.60;;;;;;;;;;1879529;76;26374;-48
2022/02/19 07:47:29;;;;;;;0.50;0.50;;;;;;;;;;1860719;76;26700;-45
2022/02/19 07:58:26;;;;;;;1.72;0.40;;;;;;;;;;1888533;76;26910;-46
2022/02/19 08:00:51;;;;;;;1.07;0.40;;;;;;;;;;1887579;76;26333;-46
2022/02/19 08:03:20;;;;;;;2.02;0.45;;;;;;;;;;1886959;76;26265;-46
2022/02/19 08:05:48;;;;;;;1.02;0.50;;;;;;;;;;1887767;75;26866;-45
2022/02/19 08:08:16;;;;;;;0.40;0.40;;;;;;;;;;1887589;75;26823;-47
2022/02/19 08:10:45;;;;;;;1.80;0.53;;;;;;;;;;1889438;76;26295;-48
2022/02/19 08:13:13;;;;;;;7.00;0.50;;;;;;;;;;1889356;76;26316;-47
2022/02/19 08:15:41;;;;;;;1.10;0.50;;;;;;;;;;1887641;75;26691;-47
2022/02/19 08:18:10;;;;;;;1.90;0.50;;;;;;;;;;1888629;76;26695;-45
2022/02/19 08:20:38;;;;;;;2.47;0.60;;;;;;;;;;1888125;76;26311;-47
2022/02/19 08:23:07;;;;;;;1.62;0.50;;;;;;;;;;1887495;75;25344;-50
2022/02/19 08:25:35;;;;;;;1.35;0.45;;;;;;;;;;1889150;76;26265;-51
2022/02/19 08:28:05;;;;;;;1.05;0.40;;;;;;;;;;1888507;76;26308;-61
2022/02/19 08:30:33;;;;;;;2.92;0.35;;;;;;;;;;1886830;76;26705;-57
2022/02/19 08:33:00;;;;;;;2.85;0.55;;;;;;;;;;1888496;76;26708;-52
2022/02/19 08:35:28;;;;;;;1.10;0.30;;;;;;;;;;1888790;76;26256;-55
2022/02/19 08:37:55;;;;;;;1.35;0.40;;;;;;;;;;1886476;76;25745;-55
2022/02/19 08:40:23;;;;;;;0.40;0.40;;;;;;;;;;1889612;75;26330;-54
2022/02/19 08:42:50;;;;;;;0.47;0.37;;;;;;;;;;1885600;75;26279;-51
2022/02/19 08:45:18;;;;;;;4.92;0.60;;;;;;;;;;1886480;76;25723;-49
2022/02/19 08:47:46;;;;;;;2.25;0.60;;;;;;;;;;1889220;76;26361;-55
2022/02/19 08:50:14;;;;;;;1.30;0.93;;;;;;;;;;1879393;76;26353;-57
2022/02/19 08:52:45;;;;;;;3.35;0.47;;;;;;;;;;1879111;76;26957;-51
2022/02/19 08:55:13;;;;;;;1.75;0.60;;;;;;;;;;1877355;76;26312;-53
2022/02/19 08:57:41;;;;;;;0.40;0.40;;;;;;;;;;1877743;76;26241;-54
2022/02/19 09:00:10;;;;;;;2.12;0.40;;;;;;;;;;1873067;76;26688;-57
2022/02/19 09:02:38;;;;;;;1.50;0.40;;;;;;;;;;1877907;76;26697;-58
2022/02/19 09:05:06;;;;;;;0.70;0.45;;;;;;;;;;1873163;75;26894;-53
2022/02/19 09:07:34;;;;;;;4.22;0.42;;;;;;;;;;1876531;76;26277;-61
2022/02/19 09:10:02;;;;;;;0.90;0.50;;;;;;;;;;1876654;76;26265;-57
2022/02/19 09:12:29;;;;;;;2.08;0.37;;;;;;;;;;1879466;76;26602;-58
2022/02/19 09:14:57;;;;;;;2.92;0.40;;;;;;;;;;1879563;76;26197;-56
2022/02/19 09:17:24;;;;;;;3.45;0.47;;;;;;;;;;1877932;76;26269;-49
2022/02/19 09:19:52;;;;;;;2.17;0.35;;;;;;;;;;1878692;76;25624;-50
2022/02/19 09:22:19;;;;;;;1.60;0.35;;;;;;;;;;1877901;76;26190;-57
2022/02/19 09:24:46;;;;;;;2.25;0.40;;;;;;;;;;1879419;76;26271;-55
2022/02/19 09:27:13;;;;;;;0.30;0.30;;;;;;;;;;1877045;76;26304;-50
2022/02/19 09:29:41;;;;;;;1.27;0.40;;;;;;;;;;1879865;76;26342;-55
2022/02/19 09:32:09;;;;;;;1.45;0.33;;;;;;;;;;1879790;76;27634;-55
2022/02/19 09:34:36;;;;;;;2.60;0.40;;;;;;;;;;1879888;76;26343;-52
2022/02/19 09:37:03;;;;;;;2.22;0.60;;;;;;;;;;1879672;76;26319;-48
2022/02/19 09:39:31;;;;;;;0.85;0.40;;;;;;;;;;1878364;76;26676;-52
2022/02/19 09:42:02;;;;;;;2.30;0.53;;;;;;;;;;1878816;76;26807;-55
2022/02/19 09:44:27;;;;;;;2.62;0.62;;;;;;;;;;1878552;76;26800;-51
2022/02/19 09:46:55;;;;;;;0.60;0.60;;;;;;;;;;1880596;76;26311;-57
2022/02/19 09:49:22;;;;;;;0.93;0.50;;;;;;;;;;1877510;76;26311;-53
2022/02/19 09:51:50;;;;;;;1.67;0.60;;;;;;;;;;1882583;76;26370;-59
2022/02/19 09:54:17;;;;;;;1.10;0.40;;;;;;;;;;1885271;76;26193;-49
2022/02/19 09:56:44;;;;;;;2.22;0.60;;;;;;;;;;1886604;76;26311;-58
2022/02/19 09:59:12;;;;;;;1.90;0.80;;;;;;;;;;1889306;76;26284;-52
2022/02/19 10:01:45;;;;;;;2.55;0.60;;;;;;;;;;1889258;76;25873;-46
2022/02/19 10:04:08;;;;;;;1.37;0.78;;;;;;;;;;1886300;76;26822;-51
2022/02/19 10:06:36;;;;;;;2.58;0.78;;;;;;;;;;1888602;76;26237;-49
2022/02/19 10:09:22;;;;;;;1.37;0.60;;;;;;;;;;1889813;76;26261;-52
2022/02/19 10:11:49;;;;;;;2.33;0.72;;;;;;;;;;1889913;76;26345;-59
2022/02/19 10:14:29;;;;;;;0.90;0.57;;;;;;;;;;1887945;76;26335;-54
2022/02/19 10:17:15;;;;;;;0.53;0.53;;;;;;;;;;1885104;76;26792;-56
2022/02/19 10:19:48;;;;;;;3.85;0.70;;;;;;;;;;1883354;76;25793;-51
2022/02/19 10:22:16;;;;;;;1.98;0.60;;;;;;;;;;1886428;75;26664;-48
2022/02/19 10:24:47;;;;;;;2.80;0.70;;;;;;;;;;1885618;75;26277;-47
2022/02/19 10:27:15;;;;;;;2.67;0.70;;;;;;;;;;1889345;74;26275;-52
2022/02/19 10:29:49;;;;;;;4.65;0.80;;;;;;;;;;1881977;76;26347;-48
2022/02/19 10:32:17;;;;;;;2.60;0.50;;;;;;;;;;1880263;76;26280;-51
2022/02/19 10:34:57;;;;;;;1.77;0.47;;;;;;;;;;1885085;76;25926;-53
2022/02/19 10:37:25;;;;;;;1.50;0.50;;;;;;;;;;1881562;76;26799;-53
2022/02/19 10:39:53;;;;;;;1.07;0.55;;;;;;;;;;1880263;74;26261;-52
2022/02/19 10:42:21;;;;;;;0.68;0.45;;;;;;;;;;1879397;76;26241;-51
2022/02/19 10:44:49;;;;;;;1.35;0.50;;;;;;;;;;1878912;74;26277;-49
2022/02/19 10:47:20;;;;;;;1.55;0.53;;;;;;;;;;1888716;76;26280;-52
2022/02/19 10:50:07;;;;;;;3.85;0.60;;;;;;;;;;1887755;76;26338;-49
2022/02/19 10:52:36;;;;;;;0.60;0.60;;;;;;;;;;1879954;75;27324;-52
2022/02/19 10:55:07;;;;;;;0.90;0.60;;;;;;;;;;1879492;75;27481;-54
2022/02/19 10:57:44;;;;;;;0.72;0.60;;;;;;;;;;1875379;76;26335;-52
2022/02/19 11:00:16;;;;;;;1.37;0.50;;;;;;;;;;1880340;76;26335;-48
2022/02/19 11:02:46;;;;;;;1.45;0.50;;;;;;;;;;1862010;76;26318;-51
2022/02/19 11:05:13;;;;;;;0.30;0.30;;;;;;;;;;1881259;75;26711;-49
2022/02/19 11:07:41;;;;;;;0.33;0.33;;;;;;;;;;1879874;76;26282;-50
2022/02/19 11:10:10;;;;;;;0.50;0.50;;;;;;;;;;1879520;76;26735;-49
2022/02/19 11:12:38;;;;;;;1.95;0.40;;;;;;;;;;1867764;75;26307;-50
2022/02/19 11:15:07;;;;;;;0.70;0.30;;;;;;;;;;1876259;76;26335;-50
2022/02/19 11:17:34;;;;;;;2.25;0.47;;;;;;;;;;1870110;76;26681;-50
2022/02/19 11:20:03;;;;;;;0.45;0.40;;;;;;;;;;1869752;76;26242;-50
2022/02/19 11:22:32;;;;;;;0.20;0.20;;;;;;;;;;1877895;76;26257;-52
2022/02/19 11:25:00;;;;;;;0.25;0.25;;;;;;;;;;1879869;76;26276;-53
2022/02/19 11:27:29;;;;;;;0.47;0.42;;;;;;;;;;1880091;76;26780;-49
2022/02/19 11:29:58;;;;;;;0.23;0.20;;;;;;;;;;1880301;76;26238;-51
2022/02/19 11:32:26;;;;;;;0.57;0.20;;;;;;;;;;1876473;76;26263;-50
2022/02/19 11:34:54;;;;;;;0.40;0.40;;;;;;;;;;1880046;75;26209;-50
2022/02/19 11:37:23;;;;;;;0.30;0.30;;;;;;;;;;1885572;75;26266;-49
2022/02/19 11:40:07;;;;;;;0.28;0.25;;;;;;;;;;1879332;76;26265;-51
2022/02/19 11:42:45;;;;;;;0.65;0.37;;;;;;;;;;1880289;76;26265;-51
2022/02/19 11:45:17;;;;;;;0.13;0.13;;;;;;;;;;1880251;76;26261;-50
2022/02/19 11:47:47;;;;;;;0.20;0.20;;;;;;;;;;1879470;76;26370;-48
2022/02/19 11:50:19;;;;;;;0.50;0.50;;;;;;;;;;1879895;76;26338;-51
2022/02/19 11:53:04;;;;;;;0.47;0.30;;;;;;;;;;1875006;76;26898;-48
2022/02/19 11:55:32;;;;;;;0.30;0.30;;;;;;;;;;1878233;75;26305;-53
2022/02/19 11:58:00;;;;;;;0.33;0.33;;;;;;;;;;1857662;76;27703;-50
2022/02/19 12:00:47;;;;;;;0.20;0.17;;;;;;;;;;1880447;75;26280;-51
2022/02/19 12:03:16;;;;;;;0.30;0.30;;;;;;;;;;1880762;76;26716;-49
2022/02/19 12:06:02;;;;;;;0.30;0.30;;;;;;;;;;1874090;76;26285;-51
2022/02/19 12:08:30;;;;;;;1.12;0.33;;;;;;;;;;1880579;76;26386;-51
2022/02/19 12:11:05;;;;;;;0.30;0.30;;;;;;;;;;1851219;76;26273;-51
2022/02/19 12:13:46;;;;;;;0.35;0.35;;;;;;;;;;1863313;75;26288;-53
2022/02/19 12:16:30;;;;;;;0.30;0.30;;;;;;;;;;1879185;76;26296;-54
2022/02/19 12:18:59;;;;;;;0.30;0.30;;;;;;;;;;1879359;76;26285;-50
2022/02/19 12:21:31;;;;;;;0.23;0.23;;;;;;;;;;1879337;76;26261;-48
2022/02/19 12:24:12;;;;;;;0.20;0.20;;;;;;;;;;1874100;76;26363;-50
2022/02/19 12:27:05;;;;;;;0.20;0.20;;;;;;;;;;1880091;76;26202;-49
2022/02/19 12:29:29;;;;;;;0.23;0.23;;;;;;;;;;1879245;76;26825;-52
2022/02/19 12:32:07;;;;;;;0.17;0.17;;;;;;;;;;1879089;76;26334;-48
2022/02/19 12:34:36;;;;;;;0.88;0.30;;;;;;;;;;1877942;76;26631;-51
2022/02/19 12:37:05;;;;;;;0.20;0.20;;;;;;;;;;1885408;75;26332;-48
2022/02/19 12:39:38;;;;;;;0.20;0.20;;;;;;;;;;1883001;75;26305;-49
2022/02/19 12:42:05;;;;;;;0.30;0.30;;;;;;;;;;1879708;76;26298;-53
2022/02/19 12:44:33;;;;;;;0.23;0.23;;;;;;;;;;1879960;75;26284;-50
2022/02/19 12:47:01;;;;;;;0.10;0.10;;;;;;;;;;1879667;76;26374;-49
2022/02/19 12:49:28;;;;;;;0.23;0.20;;;;;;;;;;1876898;75;26330;-49
2022/02/19 12:51:57;;;;;;;0.20;0.20;;;;;;;;;;1876858;76;26361;-50
2022/02/19 12:54:35;;;;;;;0.50;0.30;;;;;;;;;;1880452;76;26702;-48
2022/02/19 12:57:02;;;;;;;0.30;0.30;;;;;;;;;;1877927;76;26383;-50
2022/02/19 12:59:34;;;;;;;0.30;0.30;;;;;;;;;;1880509;76;26218;-49
2022/02/19 13:02:02;;;;;;;0.20;0.20;;;;;;;;;;1880619;76;26724;-51
2022/02/19 13:04:31;;;;;;;0.30;0.30;;;;;;;;;;1878590;76;26316;-52
2022/02/19 13:06:59;;;;;;;0.37;0.37;;;;;;;;;;1880287;76;26371;-50
2022/02/19 13:09:27;;;;;;;0.30;0.30;;;;;;;;;;1880233;76;26355;-51
2022/02/19 13:11:55;;;;;;;0.30;0.30;;;;;;;;;;1880695;76;26736;-50
2022/02/19 13:14:28;;;;;;;0.30;0.30;;;;;;;;;;1880326;76;26937;-49
2022/02/19 13:16:59;;;;;;;0.45;0.45;;;;;;;;;;1880030;76;26214;-53
2022/02/19 13:19:27;;;;;;;0.30;0.30;;;;;;;;;;1879205;76;26264;-53
2022/02/19 13:22:01;;;;;;;0.37;0.37;;;;;;;;;;1879331;76;26285;-48
2022/02/19 13:24:34;;;;;;;0.40;0.40;;;;;;;;;;1879772;76;26256;-54
2022/02/19 13:27:17;;;;;;;0.40;0.40;;;;;;;;;;1876534;76;26260;-49
2022/02/19 13:29:48;;;;;;;0.30;0.30;;;;;;;;;;1888428;75;26753;-51
2022/02/19 13:32:17;;;;;;;0.25;0.25;;;;;;;;;;1888374;75;26743;-49
2022/02/19 13:34:45;;;;;;;0.30;0.30;;;;;;;;;;1872186;76;26256;-50
2022/02/19 13:37:13;;;;;;;0.30;0.30;;;;;;;;;;1877946;76;26674;-49
2022/02/19 13:39:41;;;;;;;0.40;0.40;;;;;;;;;;1880110;76;26261;-53
2022/02/19 13:42:09;;;;;;;0.30;0.30;;;;;;;;;;1879162;76;26319;-49
2022/02/19 13:44:53;;;;;;;0.30;0.30;;;;;;;;;;1880400;76;26260;-49
2022/02/19 13:47:22;;;;;;;0.35;0.35;;;;;;;;;;1880491;76;27322;-52
2022/02/19 13:49:51;;;;;;;0.30;0.30;;;;;;;;;;1880431;76;26848;-50
2022/02/19 13:52:25;;;;;;;0.45;0.45;;;;;;;;;;1885315;76;26719;-51
2022/02/19 13:54:53;;;;;;;0.40;0.40;;;;;;;;;;1889740;75;26216;-49
2022/02/19 13:57:22;;;;;;;0.30;0.30;;;;;;;;;;1887928;76;26201;-53
2022/02/19 13:59:56;;;;;;;0.33;0.33;;;;;;;;;;1888307;76;26729;-51
2022/02/19 14:02:24;;;;;;;0.30;0.30;;;;;;;;;;1873249;76;25645;-51
2022/02/19 14:04:52;;;;;;;0.40;0.40;;;;;;;;;;1890794;75;26706;-50
2022/02/19 14:07:20;;;;;;;0.40;0.40;;;;;;;;;;1888705;75;26738;-54
2022/02/19 14:09:48;;;;;;;0.30;0.30;;;;;;;;;;1888212;76;26347;-53
2022/02/19 14:12:16;;;;;;;0.40;0.40;;;;;;;;;;1873744;76;26393;-54
2022/02/19 14:14:45;;;;;;;0.37;0.37;;;;;;;;;;1881876;76;26285;-55
2022/02/19 14:17:14;;;;;;;0.20;0.20;;;;;;;;;;1872434;76;26907;-56
2022/02/19 14:19:55;;;;;;;0.30;0.30;;;;;;;;;;1872736;76;26796;-52
2022/02/19 14:22:23;;;;;;;0.37;0.37;;;;;;;;;;1880029;76;26214;-52
2022/02/19 14:24:57;;;;;;;0.30;0.30;;;;;;;;;;1889653;75;26205;-52
2022/02/19 14:27:24;;;;;;;0.40;0.40;;;;;;;;;;1888035;76;26752;-49
2022/02/19 14:29:52;;;;;;;0.62;0.50;;;;;;;;;;1889141;76;26257;-49
2022/02/19 14:32:19;;;;;;;1.87;0.30;;;;;;;;;;1888320;76;26269;-51
2022/02/19 14:34:47;;;;;;;0.55;0.50;;;;;;;;;;1888833;76;26674;-50
2022/02/19 14:37:14;;;;;;;2.42;0.70;;;;;;;;;;1889440;76;26644;-52
2022/02/19 14:39:41;;;;;;;1.95;0.60;;;;;;;;;;1889259;74;26249;-52
2022/02/19 14:42:09;;;;;;;2.35;0.45;;;;;;;;;;1883617;76;26327;-53
2022/02/19 14:44:36;;;;;;;6.80;0.70;;;;;;;;;;1879168;74;26338;-50
2022/02/19 14:47:04;;;;;;;6.85;0.88;;;;;;;;;;1876595;76;26810;-53
2022/02/19 14:49:32;;;;;;;7.20;1.00;;;;;;;;;;1880815;76;26277;-52
2022/02/19 14:51:59;;;;;;;10.25;1.60;;;;;;;;;;1877024;76;27137;-54
2022/02/19 14:54:27;;;;;;;9.60;1.00;;;;;;;;;;1844338;76;26313;-52
2022/02/19 14:56:55;;;;;;;13.18;1.00;;;;;;;;;;1846651;76;26722;-52
2022/02/19 14:59:22;;;;;;;9.15;1.17;;;;;;;;;;1857705;76;26758;-51